createdAt,value
2017-01-18T00:00:29.507Z,0
2017-01-18T00:01:30.256Z,0
2017-01-18T00:02:31.000Z,0
2017-01-18T00:03:31.745Z,0
2017-01-18T00:04:32.504Z,0
2017-01-18T00:05:33.261Z,0
2017-01-18T00:06:34.001Z,0
2017-01-18T00:07:34.745Z,0
2017-01-18T00:08:35.483Z,0
2017-01-18T00:09:36.278Z,0
2017-01-18T00:10:37.015Z,0
2017-01-18T00:11:37.758Z,0
2017-01-18T00:12:38.497Z,0
2017-01-18T00:13:39.255Z,0
2017-01-18T00:14:40.004Z,0
2017-01-18T00:15:40.752Z,0
2017-01-18T00:16:41.552Z,0
2017-01-18T00:17:42.304Z,0
2017-01-18T00:18:43.056Z,0
2017-01-18T00:19:43.809Z,0
2017-01-18T00:20:44.552Z,0
2017-01-18T00:21:45.319Z,0
2017-01-18T00:22:46.073Z,0
2017-01-18T00:23:46.822Z,0
2017-01-18T00:24:47.580Z,0
2017-01-18T00:25:48.371Z,0
2017-01-18T00:26:49.136Z,0
2017-01-18T00:27:49.876Z,0
2017-01-18T00:28:50.649Z,0
2017-01-18T00:29:51.389Z,0
2017-01-18T00:30:52.140Z,0
2017-01-18T00:31:52.875Z,0
2017-01-18T00:32:53.616Z,0
2017-01-18T00:33:54.357Z,0
2017-01-18T00:34:55.104Z,0
2017-01-18T00:35:55.848Z,0
2017-01-18T00:36:56.601Z,0
2017-01-18T00:37:57.360Z,0
2017-01-18T00:38:58.122Z,0
2017-01-18T00:39:58.858Z,0
2017-01-18T00:40:59.626Z,0
2017-01-18T00:42:00.368Z,0
2017-01-18T00:43:01.132Z,0
2017-01-18T00:44:01.871Z,0
2017-01-18T00:45:02.599Z,0
2017-01-18T00:46:03.364Z,0
2017-01-18T00:47:04.116Z,0
2017-01-18T00:48:04.851Z,0
2017-01-18T00:49:05.602Z,0
2017-01-18T00:50:06.353Z,0
2017-01-18T00:51:07.123Z,0
2017-01-18T00:52:07.886Z,0
2017-01-18T00:53:08.668Z,0
2017-01-18T00:54:09.409Z,0
2017-01-18T00:55:10.165Z,0
2017-01-18T00:56:10.919Z,0
2017-01-18T00:57:11.668Z,0
2017-01-18T00:58:12.420Z,0
2017-01-18T00:59:13.159Z,0
2017-01-18T01:00:13.920Z,0
2017-01-18T01:01:14.682Z,0
2017-01-18T01:02:15.436Z,0
2017-01-18T01:03:16.187Z,0
2017-01-18T01:04:16.936Z,0
2017-01-18T01:05:17.688Z,0
2017-01-18T01:06:18.436Z,0
2017-01-18T01:07:19.208Z,0
2017-01-18T01:08:19.986Z,0
2017-01-18T01:09:20.748Z,0
2017-01-18T01:10:21.496Z,0
2017-01-18T01:11:22.236Z,0
2017-01-18T01:12:22.982Z,0
2017-01-18T01:13:23.763Z,0
2017-01-18T01:14:24.522Z,0
2017-01-18T01:15:25.250Z,0
2017-01-18T01:16:26.005Z,0
2017-01-18T01:17:26.755Z,0
2017-01-18T01:18:27.509Z,0
2017-01-18T01:19:28.246Z,0
2017-01-18T01:20:28.978Z,0
2017-01-18T01:21:29.733Z,0
2017-01-18T01:22:30.474Z,0
2017-01-18T01:23:31.226Z,0
2017-01-18T01:24:31.984Z,0
2017-01-18T01:25:32.765Z,0
2017-01-18T01:26:33.517Z,0
2017-01-18T01:27:34.273Z,0
2017-01-18T01:28:35.019Z,0
2017-01-18T01:29:35.757Z,0
2017-01-18T01:30:36.514Z,0
2017-01-18T01:31:37.270Z,0
2017-01-18T01:32:38.023Z,0
2017-01-18T01:33:38.766Z,0
2017-01-18T01:34:39.512Z,0
2017-01-18T01:35:40.267Z,0
2017-01-18T01:36:41.017Z,0
2017-01-18T01:37:41.768Z,0
2017-01-18T01:38:42.524Z,0
2017-01-18T01:39:43.311Z,0
2017-01-18T01:40:44.070Z,0
2017-01-18T01:41:44.812Z,0
2017-01-18T01:42:45.557Z,0
2017-01-18T01:43:46.300Z,0
2017-01-18T01:44:47.065Z,0
2017-01-18T01:45:47.826Z,0
2017-01-18T01:46:48.617Z,0
2017-01-18T01:47:49.369Z,0
2017-01-18T01:48:50.125Z,0
2017-01-18T01:49:50.881Z,0
2017-01-18T01:50:51.629Z,0
2017-01-18T01:51:52.452Z,0
2017-01-18T01:52:53.210Z,0
2017-01-18T01:53:53.971Z,0
2017-01-18T01:54:54.736Z,0
2017-01-18T01:55:55.494Z,0
2017-01-18T01:56:56.254Z,0
2017-01-18T01:57:57.020Z,0
2017-01-18T01:58:57.772Z,0
2017-01-18T01:59:58.554Z,0
2017-01-18T02:00:59.309Z,0
2017-01-18T02:02:00.078Z,0
2017-01-18T02:03:00.858Z,0
2017-01-18T02:04:01.617Z,0
2017-01-18T02:05:02.361Z,0
2017-01-18T02:06:03.105Z,0
2017-01-18T02:07:03.853Z,0
2017-01-18T02:08:04.605Z,0
2017-01-18T02:09:05.346Z,0
2017-01-18T02:10:06.096Z,0
2017-01-18T02:11:06.846Z,0
2017-01-18T02:12:07.607Z,0
2017-01-18T02:13:08.373Z,0
2017-01-18T02:14:09.144Z,0
2017-01-18T02:15:09.872Z,0
2017-01-18T02:16:10.635Z,0
2017-01-18T02:17:11.454Z,0
2017-01-18T02:18:12.206Z,0
2017-01-18T02:19:12.981Z,0
2017-01-18T02:20:13.760Z,0
2017-01-18T02:21:14.531Z,0
2017-01-18T02:22:15.301Z,0
2017-01-18T02:23:16.073Z,0
2017-01-18T02:24:16.832Z,0
2017-01-18T02:25:17.584Z,0
2017-01-18T02:26:18.340Z,0
2017-01-18T02:27:19.117Z,0
2017-01-18T02:28:19.872Z,0
2017-01-18T02:29:20.648Z,0
2017-01-18T02:30:21.411Z,0
2017-01-18T02:31:22.163Z,0
2017-01-18T02:32:22.910Z,0
2017-01-18T02:33:23.704Z,0
2017-01-18T02:34:24.467Z,0
2017-01-18T02:35:25.227Z,0
2017-01-18T02:36:25.971Z,0
2017-01-18T02:37:26.728Z,0
2017-01-18T02:38:27.468Z,0
2017-01-18T02:39:28.220Z,0
2017-01-18T02:40:28.961Z,0
2017-01-18T02:41:29.784Z,0
2017-01-18T02:42:30.506Z,0
2017-01-18T02:43:31.270Z,0
2017-01-18T02:44:32.054Z,0
2017-01-18T02:45:32.797Z,0
2017-01-18T02:46:33.573Z,0
2017-01-18T02:47:34.327Z,0
2017-01-18T02:48:35.098Z,0
2017-01-18T02:49:35.832Z,0
2017-01-18T02:50:36.582Z,0
2017-01-18T02:51:37.325Z,0
2017-01-18T02:52:38.073Z,0
2017-01-18T02:53:38.817Z,0
2017-01-18T02:54:39.581Z,0
2017-01-18T02:55:40.340Z,0
2017-01-18T02:56:41.084Z,0
2017-01-18T02:57:41.835Z,0
2017-01-18T02:58:42.592Z,0
2017-01-18T02:59:43.347Z,0
2017-01-18T03:00:44.094Z,0
2017-01-18T03:01:44.863Z,0
2017-01-18T03:02:45.614Z,0
2017-01-18T03:03:46.369Z,0
2017-01-18T03:04:47.130Z,0
2017-01-18T03:05:47.870Z,0
2017-01-18T03:06:48.622Z,0
2017-01-18T03:07:49.360Z,0
2017-01-18T03:08:50.110Z,0
2017-01-18T03:09:50.866Z,0
2017-01-18T03:10:51.619Z,0
2017-01-18T03:11:52.369Z,0
2017-01-18T03:12:53.126Z,0
2017-01-18T03:13:53.870Z,0
2017-01-18T03:14:54.611Z,0
2017-01-18T03:15:55.348Z,0
2017-01-18T03:16:56.108Z,0
2017-01-18T03:17:56.867Z,0
2017-01-18T03:18:57.622Z,0
2017-01-18T03:19:58.377Z,0
2017-01-18T03:20:59.142Z,0
2017-01-18T03:21:59.897Z,0
2017-01-18T03:23:00.651Z,0
2017-01-18T03:24:01.416Z,0
2017-01-18T03:25:02.169Z,0
2017-01-18T03:26:02.906Z,0
2017-01-18T03:27:03.660Z,0
2017-01-18T03:28:04.415Z,0
2017-01-18T03:29:05.169Z,0
2017-01-18T03:30:05.941Z,0
2017-01-18T03:31:06.678Z,0
2017-01-18T03:32:07.426Z,0
2017-01-18T03:33:08.175Z,0
2017-01-18T03:34:08.936Z,0
2017-01-18T03:35:09.680Z,0
2017-01-18T03:36:10.447Z,0
2017-01-18T03:37:11.189Z,0
2017-01-18T03:38:11.939Z,0
2017-01-18T03:39:12.699Z,0
2017-01-18T03:40:13.439Z,0
2017-01-18T03:41:14.182Z,0
2017-01-18T03:42:14.918Z,0
2017-01-18T03:43:15.684Z,0
2017-01-18T03:44:16.433Z,0
2017-01-18T03:45:17.199Z,0
2017-01-18T03:46:17.983Z,0
2017-01-18T03:47:18.731Z,0
2017-01-18T03:48:19.470Z,0
2017-01-18T03:49:20.230Z,0
2017-01-18T03:50:21.001Z,0
2017-01-18T03:51:21.756Z,0
2017-01-18T03:52:22.499Z,0
2017-01-18T03:53:23.261Z,0
2017-01-18T03:54:24.017Z,0
2017-01-18T03:55:24.797Z,0
2017-01-18T03:56:25.550Z,0
2017-01-18T03:57:26.308Z,0
2017-01-18T03:58:27.075Z,0
2017-01-18T03:59:27.823Z,0
2017-01-18T04:00:28.588Z,0
2017-01-18T04:01:29.354Z,0
2017-01-18T04:02:30.107Z,0
2017-01-18T04:03:30.875Z,0
2017-01-18T04:04:31.629Z,0
2017-01-18T04:08:47.053Z,0
2017-01-18T04:09:47.827Z,0
2017-01-18T04:10:48.577Z,0
2017-01-18T04:11:49.318Z,0
2017-01-18T04:12:50.071Z,0
2017-01-18T04:13:50.837Z,0
2017-01-18T04:14:51.583Z,0
2017-01-18T04:15:52.332Z,0
2017-01-18T04:16:53.087Z,0
2017-01-18T04:17:53.890Z,0
2017-01-18T04:18:54.653Z,0
2017-01-18T04:19:55.418Z,0
2017-01-18T04:20:56.163Z,0
2017-01-18T04:21:56.928Z,0
2017-01-18T04:22:57.691Z,0
2017-01-18T04:23:58.455Z,0
2017-01-18T04:24:59.210Z,0
2017-01-18T04:25:59.957Z,0
2017-01-18T04:27:00.698Z,0
2017-01-18T04:28:01.445Z,0
2017-01-18T04:29:02.196Z,0
2017-01-18T04:30:02.958Z,0
2017-01-18T04:31:03.697Z,0
2017-01-18T04:32:04.462Z,0
2017-01-18T04:33:05.227Z,0
2017-01-18T04:34:05.991Z,0
2017-01-18T04:35:06.817Z,0
2017-01-18T04:36:07.572Z,0
2017-01-18T04:37:08.321Z,0
2017-01-18T04:38:09.078Z,0
2017-01-18T04:39:09.819Z,0
2017-01-18T04:40:10.578Z,0
2017-01-18T04:41:11.328Z,0
2017-01-18T04:42:12.112Z,0
2017-01-18T04:43:12.865Z,0
2017-01-18T04:44:13.629Z,0
2017-01-18T04:45:14.381Z,0
2017-01-18T04:46:15.139Z,0
2017-01-18T04:47:15.888Z,0
2017-01-18T04:48:16.645Z,0
2017-01-18T04:49:17.387Z,0
2017-01-18T04:50:18.182Z,0
2017-01-18T04:51:18.949Z,0
2017-01-18T04:52:19.688Z,0
2017-01-18T04:53:20.432Z,0
2017-01-18T04:54:21.194Z,0
2017-01-18T04:55:21.932Z,0
2017-01-18T04:56:22.687Z,0
2017-01-18T04:57:23.437Z,0
2017-01-18T04:58:24.193Z,0
2017-01-18T04:59:24.943Z,0
2017-01-18T05:00:25.687Z,0
2017-01-18T05:01:26.453Z,0
2017-01-18T05:02:27.208Z,0
2017-01-18T05:03:27.977Z,0
2017-01-18T05:04:28.749Z,0
2017-01-18T05:05:29.498Z,0
2017-01-18T05:06:30.270Z,0
2017-01-18T05:07:31.049Z,0
2017-01-18T05:08:31.811Z,0
2017-01-18T05:09:32.563Z,0
2017-01-18T05:10:33.312Z,0
2017-01-18T05:11:34.061Z,0
2017-01-18T05:12:34.830Z,0
2017-01-18T05:13:35.586Z,0
2017-01-18T05:14:36.343Z,0
2017-01-18T05:15:37.092Z,0
2017-01-18T05:16:37.836Z,0
2017-01-18T05:17:38.591Z,0
2017-01-18T05:18:39.350Z,0
2017-01-18T05:19:40.099Z,0
2017-01-18T05:20:40.856Z,0
2017-01-18T05:21:41.610Z,0
2017-01-18T05:22:42.366Z,0
2017-01-18T05:23:43.120Z,0
2017-01-18T05:24:43.887Z,0
2017-01-18T05:25:44.657Z,0
2017-01-18T05:26:45.418Z,0
2017-01-18T05:27:46.157Z,0
2017-01-18T05:28:46.895Z,0
2017-01-18T05:29:47.666Z,0
2017-01-18T05:30:48.466Z,0
2017-01-18T05:31:49.212Z,0
2017-01-18T05:32:49.973Z,0
2017-01-18T05:33:50.726Z,0
2017-01-18T05:34:51.493Z,0
2017-01-18T05:35:52.240Z,0
2017-01-18T05:36:52.987Z,0
2017-01-18T05:37:53.729Z,0
2017-01-18T05:38:54.479Z,0
2017-01-18T05:39:55.234Z,0
2017-01-18T05:40:55.985Z,0
2017-01-18T05:41:56.730Z,0
2017-01-18T05:42:57.517Z,0
2017-01-18T05:43:58.260Z,0
2017-01-18T05:44:59.032Z,0
2017-01-18T05:45:59.811Z,0
2017-01-18T05:47:00.554Z,0
2017-01-18T05:48:01.310Z,0
2017-01-18T05:49:02.078Z,0
2017-01-18T05:50:02.840Z,0
2017-01-18T05:51:03.588Z,0
2017-01-18T05:52:04.360Z,0
2017-01-18T05:53:05.138Z,0
2017-01-18T05:54:05.899Z,0
2017-01-18T05:55:06.653Z,0
2017-01-18T05:56:07.397Z,0
2017-01-18T05:57:08.172Z,0
2017-01-18T05:58:08.934Z,0
2017-01-18T05:59:09.711Z,0
2017-01-18T06:00:10.468Z,0
2017-01-18T06:01:11.235Z,0
2017-01-18T06:02:12.052Z,0
2017-01-18T06:03:12.788Z,0
2017-01-18T06:04:13.625Z,0
2017-01-18T06:05:14.330Z,0
2017-01-18T06:06:15.082Z,0
2017-01-18T06:07:15.843Z,0
2017-01-18T06:08:16.616Z,0
2017-01-18T06:09:17.364Z,0
2017-01-18T06:10:18.124Z,0
2017-01-18T06:11:18.909Z,0
2017-01-18T06:12:19.669Z,0
2017-01-18T06:13:20.433Z,0
2017-01-18T06:14:21.194Z,0
2017-01-18T06:15:21.965Z,0
2017-01-18T06:16:22.736Z,0
2017-01-18T06:17:23.511Z,0
2017-01-18T06:19:04.003Z,0
2017-01-18T06:20:04.754Z,0
2017-01-18T06:21:05.501Z,0
2017-01-18T06:22:06.275Z,0
2017-01-18T06:23:07.011Z,0
2017-01-18T06:24:07.759Z,0
2017-01-18T06:25:08.523Z,0
2017-01-18T06:26:09.269Z,0
2017-01-18T06:27:10.032Z,0
2017-01-18T06:28:10.794Z,0
2017-01-18T06:29:11.563Z,0
2017-01-18T06:30:12.328Z,0
2017-01-18T06:31:13.070Z,0
2017-01-18T06:32:13.846Z,0
2017-01-18T06:33:14.571Z,0
2017-01-18T06:34:15.327Z,0
2017-01-18T06:35:16.111Z,0
2017-01-18T06:36:16.875Z,0
2017-01-18T06:37:17.662Z,0
2017-01-18T06:38:18.421Z,0
2017-01-18T06:39:19.189Z,0
2017-01-18T06:40:19.938Z,0
2017-01-18T06:41:20.680Z,0
2017-01-18T06:42:21.441Z,0
2017-01-18T06:43:22.226Z,0
2017-01-18T06:44:22.990Z,0
2017-01-18T06:45:23.758Z,0
2017-01-18T06:46:24.502Z,0
2017-01-18T06:47:25.244Z,0
2017-01-18T06:48:26.017Z,0
2017-01-18T06:49:26.767Z,0
2017-01-18T06:50:27.509Z,0
2017-01-18T06:51:28.256Z,0
2017-01-18T06:52:29.041Z,0
2017-01-18T06:53:29.802Z,0
2017-01-18T06:54:30.556Z,0
2017-01-18T06:55:31.307Z,0
2017-01-18T06:56:32.079Z,0
2017-01-18T06:57:32.803Z,0
2017-01-18T06:58:33.539Z,0
2017-01-18T06:59:34.308Z,0
2017-01-18T07:00:35.090Z,0
2017-01-18T07:01:35.819Z,0
2017-01-18T07:02:36.584Z,0
2017-01-18T07:03:37.358Z,0
2017-01-18T07:04:38.117Z,0
2017-01-18T07:05:38.895Z,0
2017-01-18T07:06:39.704Z,0
2017-01-18T07:07:40.600Z,0
2017-01-18T07:08:41.300Z,0
2017-01-18T07:09:42.066Z,0
2017-01-18T07:10:42.831Z,0
2017-01-18T07:11:45.401Z,0
2017-01-18T07:12:46.150Z,0
2017-01-18T07:13:46.956Z,0
2017-01-18T07:14:47.704Z,0
2017-01-18T07:15:48.436Z,0
2017-01-18T07:16:49.206Z,5
2017-01-18T07:17:49.958Z,5
2017-01-18T07:18:50.726Z,5
2017-01-18T07:19:51.494Z,5
2017-01-18T07:20:52.235Z,5
2017-01-18T07:21:52.997Z,5
2017-01-18T07:22:53.731Z,5
2017-01-18T07:23:54.495Z,5
2017-01-18T07:24:55.301Z,5
2017-01-18T07:25:56.041Z,5
2017-01-18T07:26:56.783Z,5
2017-01-18T07:27:57.531Z,5
2017-01-18T07:28:58.269Z,5
2017-01-18T07:29:59.000Z,10
2017-01-18T07:30:59.739Z,10
2017-01-18T07:32:00.476Z,10
2017-01-18T07:33:01.199Z,10
2017-01-18T07:34:01.972Z,10
2017-01-18T07:35:02.721Z,10
2017-01-18T07:36:03.469Z,10
2017-01-18T07:37:04.258Z,15
2017-01-18T07:38:04.978Z,15
2017-01-18T07:39:05.714Z,15
2017-01-18T07:40:06.435Z,15
2017-01-18T07:41:07.180Z,15
2017-01-18T07:42:07.926Z,15
2017-01-18T07:43:08.658Z,20
2017-01-18T07:44:09.382Z,20
2017-01-18T07:45:10.100Z,20
2017-01-18T07:46:10.849Z,20
2017-01-18T07:47:11.572Z,25
2017-01-18T07:48:12.328Z,25
2017-01-18T07:49:13.095Z,25
2017-01-18T07:50:13.862Z,30
2017-01-18T07:51:14.629Z,30
2017-01-18T07:52:15.379Z,30
2017-01-18T07:53:16.128Z,30
2017-01-18T07:54:16.884Z,30
2017-01-18T07:55:17.641Z,30
2017-01-18T07:56:18.397Z,30
2017-01-18T07:57:19.123Z,30
2017-01-18T07:58:19.865Z,35
2017-01-18T07:59:20.618Z,35
2017-01-18T08:00:21.361Z,35
2017-01-18T08:01:22.128Z,35
2017-01-18T08:02:22.886Z,35
2017-01-18T08:03:23.659Z,35
2017-01-18T08:04:24.402Z,35
2017-01-18T08:05:25.159Z,35
2017-01-18T08:06:25.909Z,35
2017-01-18T08:07:26.659Z,35
2017-01-18T08:08:27.393Z,40
2017-01-18T08:09:28.141Z,40
2017-01-18T08:10:28.861Z,40
2017-01-18T08:11:29.633Z,40
2017-01-18T08:12:30.391Z,40
2017-01-18T08:13:31.128Z,45
2017-01-18T08:14:31.875Z,45
2017-01-18T08:15:32.624Z,50
2017-01-18T08:16:33.372Z,50
2017-01-18T08:17:34.144Z,55
2017-01-18T08:18:34.878Z,60
2017-01-18T08:19:35.628Z,60
2017-01-18T08:20:36.345Z,60
2017-01-18T08:21:37.087Z,65
2017-01-18T08:22:37.835Z,70
2017-01-18T08:23:38.585Z,70
2017-01-18T08:24:39.369Z,75
2017-01-18T08:25:40.150Z,75
2017-01-18T08:26:40.905Z,75
2017-01-18T08:27:41.645Z,80
2017-01-18T08:28:42.425Z,85
2017-01-18T08:29:43.174Z,85
2017-01-18T08:30:43.941Z,85
2017-01-18T08:31:44.685Z,80
2017-01-18T08:32:45.423Z,85
2017-01-18T08:33:46.175Z,85
2017-01-18T08:34:46.924Z,90
2017-01-18T08:35:47.655Z,90
2017-01-18T08:36:48.388Z,90
2017-01-18T08:37:49.154Z,90
2017-01-18T08:38:49.906Z,90
2017-01-18T08:39:50.640Z,90
2017-01-18T08:40:51.391Z,90
2017-01-18T08:41:52.147Z,85
2017-01-18T08:42:52.883Z,85
2017-01-18T08:43:53.611Z,90
2017-01-18T08:44:54.383Z,85
2017-01-18T08:45:55.121Z,85
2017-01-18T08:46:55.895Z,90
2017-01-18T08:47:56.627Z,90
2017-01-18T08:48:57.350Z,85
2017-01-18T08:49:58.106Z,85
2017-01-18T08:50:58.865Z,90
2017-01-18T08:51:59.648Z,90
2017-01-18T08:53:00.399Z,95
2017-01-18T08:54:01.135Z,95
2017-01-18T08:55:01.864Z,95
2017-01-18T08:56:02.599Z,95
2017-01-18T08:57:03.354Z,95
2017-01-18T08:58:04.128Z,95
2017-01-18T08:59:04.904Z,95
2017-01-18T09:00:05.634Z,95
2017-01-18T09:01:06.409Z,100
2017-01-18T09:02:07.242Z,95
2017-01-18T09:03:07.944Z,95
2017-01-18T09:04:08.694Z,95
2017-01-18T09:05:09.468Z,95
2017-01-18T09:06:10.241Z,95
2017-01-18T09:07:11.016Z,100
2017-01-18T09:08:11.787Z,100
2017-01-18T09:09:12.527Z,100
2017-01-18T09:10:13.256Z,100
2017-01-18T09:11:14.016Z,100
2017-01-18T09:12:14.812Z,105
2017-01-18T09:13:15.553Z,105
2017-01-18T09:14:16.302Z,105
2017-01-18T09:15:17.033Z,105
2017-01-18T09:16:17.784Z,105
2017-01-18T09:17:18.529Z,110
2017-01-18T09:18:19.271Z,110
2017-01-18T09:19:20.006Z,110
2017-01-18T09:20:20.755Z,110
2017-01-18T09:21:21.489Z,120
2017-01-18T09:22:22.263Z,120
2017-01-18T09:23:23.045Z,120
2017-01-18T09:24:23.776Z,120
2017-01-18T09:25:24.512Z,125
2017-01-18T09:26:25.253Z,120
2017-01-18T09:27:25.989Z,120
2017-01-18T09:28:26.738Z,120
2017-01-18T09:29:27.484Z,120
2017-01-18T09:30:28.219Z,125
2017-01-18T09:31:29.012Z,125
2017-01-18T09:32:29.752Z,125
2017-01-18T09:33:30.525Z,125
2017-01-18T09:34:31.277Z,130
2017-01-18T09:35:32.109Z,130
2017-01-18T09:36:32.838Z,130
2017-01-18T09:37:33.569Z,130
2017-01-18T09:38:34.337Z,135
2017-01-18T09:39:35.057Z,140
2017-01-18T09:40:35.816Z,145
2017-01-18T09:41:36.552Z,155
2017-01-18T09:42:37.290Z,160
2017-01-18T09:43:38.058Z,165
2017-01-18T09:44:38.823Z,165
2017-01-18T09:45:39.553Z,160
2017-01-18T09:46:40.301Z,160
2017-01-18T09:47:41.064Z,160
2017-01-18T09:48:41.889Z,155
2017-01-18T09:49:42.629Z,150
2017-01-18T09:50:43.388Z,150
2017-01-18T09:51:44.137Z,150
2017-01-18T09:52:44.875Z,150
2017-01-18T09:53:45.637Z,145
2017-01-18T09:54:46.406Z,145
2017-01-18T09:55:47.148Z,145
2017-01-18T09:56:47.973Z,145
2017-01-18T09:57:48.725Z,145
2017-01-18T09:58:49.558Z,140
2017-01-18T09:59:50.428Z,145
2017-01-18T10:00:51.208Z,145
2017-01-18T10:01:52.044Z,145
2017-01-18T10:02:52.811Z,150
2017-01-18T10:03:54.160Z,150
2017-01-18T10:04:54.907Z,145
2017-01-18T10:05:55.653Z,145
2017-01-18T10:06:56.419Z,145
2017-01-18T10:07:57.179Z,145
2017-01-18T10:08:57.933Z,145
2017-01-18T10:09:58.689Z,145
2017-01-18T10:10:59.467Z,145
2017-01-18T10:12:00.211Z,140
2017-01-18T10:13:00.960Z,135
2017-01-18T10:14:01.727Z,135
2017-01-18T10:15:02.477Z,135
2017-01-18T10:16:03.241Z,135
2017-01-18T10:17:03.987Z,140
2017-01-18T10:18:04.712Z,150
2017-01-18T10:19:05.472Z,160
2017-01-18T10:20:06.207Z,160
2017-01-18T10:21:07.031Z,155
2017-01-18T10:22:07.784Z,150
2017-01-18T10:23:08.536Z,150
2017-01-18T10:24:09.287Z,145
2017-01-18T10:25:10.036Z,150
2017-01-18T10:26:10.784Z,155
2017-01-18T10:27:11.526Z,165
2017-01-18T10:28:12.258Z,170
2017-01-18T10:29:12.983Z,175
2017-01-18T10:30:13.734Z,185
2017-01-18T10:31:14.477Z,185
2017-01-18T10:32:15.228Z,185
2017-01-18T10:33:16.056Z,185
2017-01-18T10:34:16.790Z,185
2017-01-18T10:35:17.534Z,185
2017-01-18T10:36:18.260Z,180
2017-01-18T10:37:18.994Z,175
2017-01-18T10:38:19.758Z,165
2017-01-18T10:39:20.505Z,160
2017-01-18T10:40:21.250Z,155
2017-01-18T10:41:22.000Z,155
2017-01-18T10:42:22.761Z,150
2017-01-18T10:43:23.510Z,145
2017-01-18T10:44:24.275Z,145
2017-01-18T10:45:25.037Z,145
2017-01-18T10:46:25.803Z,145
2017-01-18T10:47:26.549Z,150
2017-01-18T10:48:27.276Z,160
2017-01-18T10:49:28.043Z,165
2017-01-18T10:50:28.790Z,175
2017-01-18T10:51:29.540Z,185
2017-01-18T10:52:30.306Z,185
2017-01-18T10:53:31.010Z,190
2017-01-18T10:54:31.772Z,190
2017-01-18T10:55:32.514Z,190
2017-01-18T10:56:33.261Z,190
2017-01-18T10:57:33.977Z,195
2017-01-18T10:58:34.709Z,195
2017-01-18T10:59:35.600Z,195
2017-01-18T11:00:36.343Z,195
2017-01-18T11:01:37.115Z,190
2017-01-18T11:02:37.891Z,190
2017-01-18T11:03:38.637Z,190
2017-01-18T11:04:39.383Z,190
2017-01-18T11:05:40.128Z,185
2017-01-18T11:06:40.876Z,185
2017-01-18T11:07:41.638Z,185
2017-01-18T11:08:42.366Z,185
2017-01-18T11:09:43.101Z,185
2017-01-18T11:10:43.881Z,190
2017-01-18T11:11:44.685Z,190
2017-01-18T11:12:45.442Z,190
2017-01-18T11:13:46.194Z,190
2017-01-18T11:14:46.922Z,200
2017-01-18T11:15:47.669Z,205
2017-01-18T11:16:48.414Z,210
2017-01-18T11:17:49.178Z,215
2017-01-18T11:18:49.921Z,215
2017-01-18T11:19:50.692Z,220
2017-01-18T11:20:51.404Z,225
2017-01-18T11:21:52.152Z,225
2017-01-18T11:22:52.899Z,225
2017-01-18T11:23:53.639Z,225
2017-01-18T11:24:54.390Z,225
2017-01-18T11:25:55.129Z,220
2017-01-18T11:26:55.877Z,220
2017-01-18T11:27:56.642Z,220
2017-01-18T11:28:57.378Z,225
2017-01-18T11:29:58.124Z,225
2017-01-18T11:30:58.875Z,225
2017-01-18T11:31:59.613Z,225
2017-01-18T11:33:00.389Z,225
2017-01-18T11:34:01.131Z,225
2017-01-18T11:35:01.880Z,225
2017-01-18T11:36:02.637Z,225
2017-01-18T11:37:03.396Z,225
2017-01-18T11:38:04.139Z,225
2017-01-18T11:39:04.971Z,225
2017-01-18T11:40:05.690Z,225
2017-01-18T11:41:06.474Z,225
2017-01-18T11:42:07.236Z,225
2017-01-18T11:43:07.962Z,230
2017-01-18T11:44:08.733Z,230
2017-01-18T11:45:09.491Z,230
2017-01-18T11:46:10.248Z,230
2017-01-18T11:47:10.986Z,230
2017-01-18T11:48:11.727Z,225
2017-01-18T11:49:12.509Z,225
2017-01-18T11:50:13.239Z,225
2017-01-18T11:51:13.989Z,230
2017-01-18T11:52:14.728Z,225
2017-01-18T11:53:15.477Z,225
2017-01-18T11:54:16.239Z,225
2017-01-18T11:55:16.991Z,220
2017-01-18T11:56:17.711Z,220
2017-01-18T11:57:18.460Z,225
2017-01-18T11:58:19.211Z,220
2017-01-18T11:59:19.959Z,220
2017-01-18T12:00:20.713Z,215
2017-01-18T12:01:21.538Z,210
2017-01-18T12:02:22.306Z,220
2017-01-18T12:03:23.053Z,220
2017-01-18T12:04:23.787Z,210
2017-01-18T12:05:24.535Z,205
2017-01-18T12:06:25.282Z,200
2017-01-18T12:07:26.043Z,190
2017-01-18T12:08:26.816Z,185
2017-01-18T12:09:27.578Z,185
2017-01-18T12:10:28.319Z,185
2017-01-18T12:11:29.063Z,180
2017-01-18T12:12:29.807Z,180
2017-01-18T12:13:30.577Z,190
2017-01-18T12:14:31.359Z,195
2017-01-18T12:15:32.093Z,195
2017-01-18T12:16:32.831Z,195
2017-01-18T12:17:33.576Z,195
2017-01-18T12:18:34.326Z,195
2017-01-18T12:19:35.073Z,200
2017-01-18T12:20:35.820Z,210
2017-01-18T12:21:36.605Z,220
2017-01-18T12:22:37.340Z,230
2017-01-18T12:23:38.106Z,225
2017-01-18T12:24:38.863Z,220
2017-01-18T12:25:39.619Z,220
2017-01-18T12:26:40.348Z,225
2017-01-18T12:27:41.081Z,230
2017-01-18T12:28:41.821Z,240
2017-01-18T12:29:42.612Z,245
2017-01-18T12:30:43.451Z,250
2017-01-18T12:31:44.177Z,250
2017-01-18T12:32:44.915Z,240
2017-01-18T12:33:45.652Z,240
2017-01-18T12:34:46.398Z,230
2017-01-18T12:35:47.222Z,220
2017-01-18T12:36:47.972Z,215
2017-01-18T12:37:48.698Z,210
2017-01-18T12:38:49.447Z,205
2017-01-18T12:39:50.207Z,205
2017-01-18T12:40:50.959Z,200
2017-01-18T12:41:51.744Z,195
2017-01-18T12:42:52.510Z,190
2017-01-18T12:43:53.259Z,190
2017-01-18T12:44:54.038Z,190
2017-01-18T12:45:54.832Z,185
2017-01-18T12:46:55.637Z,185
2017-01-18T12:47:56.388Z,185
2017-01-18T12:48:57.135Z,185
2017-01-18T12:49:57.868Z,185
2017-01-18T12:50:58.612Z,185
2017-01-18T12:51:59.356Z,185
2017-01-18T12:53:00.104Z,180
2017-01-18T12:54:00.920Z,180
2017-01-18T12:55:01.766Z,175
2017-01-18T12:56:02.511Z,170
2017-01-18T12:57:03.282Z,170
2017-01-18T12:58:04.054Z,170
2017-01-18T12:59:04.943Z,170
2017-01-18T13:00:05.698Z,170
2017-01-18T13:01:06.462Z,165
2017-01-18T13:02:07.240Z,165
2017-01-18T13:03:08.043Z,160
2017-01-18T13:04:08.775Z,160
2017-01-18T13:05:09.524Z,160
2017-01-18T13:06:10.298Z,160
2017-01-18T13:07:11.061Z,155
2017-01-18T13:08:11.892Z,155
2017-01-18T13:09:12.646Z,160
2017-01-18T13:10:13.410Z,160
2017-01-18T13:11:14.154Z,160
2017-01-18T13:12:14.889Z,165
2017-01-18T13:13:15.675Z,170
2017-01-18T13:14:16.513Z,165
2017-01-18T13:15:17.272Z,165
2017-01-18T13:16:18.055Z,155
2017-01-18T13:17:18.793Z,150
2017-01-18T13:18:19.568Z,145
2017-01-18T13:19:20.325Z,150
2017-01-18T13:20:21.076Z,150
2017-01-18T13:21:22.255Z,155
2017-01-18T13:22:22.885Z,155
2017-01-18T13:23:23.667Z,150
2017-01-18T13:24:24.416Z,150
2017-01-18T13:25:25.158Z,155
2017-01-18T13:26:25.926Z,160
2017-01-18T13:27:26.776Z,160
2017-01-18T13:28:27.543Z,155
2017-01-18T13:29:28.310Z,155
2017-01-18T13:30:29.215Z,150
2017-01-18T13:31:30.057Z,150
2017-01-18T13:32:30.888Z,150
2017-01-18T13:33:31.571Z,150
2017-01-18T13:34:32.347Z,145
2017-01-18T13:35:33.107Z,145
2017-01-18T13:36:33.874Z,140
2017-01-18T13:37:34.648Z,135
2017-01-18T13:38:35.402Z,135
2017-01-18T13:39:36.131Z,135
2017-01-18T13:40:36.884Z,130
2017-01-18T13:41:37.688Z,125
2017-01-18T13:42:38.517Z,125
2017-01-18T13:43:39.282Z,125
2017-01-18T13:44:40.024Z,125
2017-01-18T13:45:40.774Z,120
2017-01-18T13:46:41.555Z,120
2017-01-18T13:47:42.340Z,120
2017-01-18T13:48:43.080Z,120
2017-01-18T13:49:43.831Z,120
2017-01-18T13:50:44.561Z,120
2017-01-18T13:51:45.330Z,120
2017-01-18T13:52:46.081Z,120
2017-01-18T13:53:46.824Z,115
2017-01-18T13:54:47.593Z,115
2017-01-18T13:55:48.374Z,115
2017-01-18T13:56:49.092Z,110
2017-01-18T13:57:49.852Z,110
2017-01-18T13:58:50.594Z,105
2017-01-18T13:59:51.385Z,105
2017-01-18T14:00:52.309Z,105
2017-01-18T14:01:53.064Z,105
2017-01-18T14:02:53.817Z,100
2017-01-18T14:03:54.671Z,105
2017-01-18T14:04:55.445Z,100
2017-01-18T14:05:56.787Z,100
2017-01-18T14:06:57.557Z,100
2017-01-18T14:07:58.330Z,100
2017-01-18T14:08:59.082Z,100
2017-01-18T14:09:59.841Z,100
2017-01-18T14:11:00.622Z,95
2017-01-18T14:12:01.407Z,95
2017-01-18T14:13:02.154Z,95
2017-01-18T14:14:02.905Z,90
2017-01-18T14:15:03.656Z,90
2017-01-18T14:16:04.378Z,90
2017-01-18T14:17:05.125Z,85
2017-01-18T14:18:05.874Z,85
2017-01-18T14:19:06.649Z,80
2017-01-18T14:20:07.488Z,80
2017-01-18T14:21:08.255Z,80
2017-01-18T14:22:09.144Z,80
2017-01-18T14:23:09.950Z,80
2017-01-18T14:24:10.691Z,75
2017-01-18T14:25:11.444Z,75
2017-01-18T14:26:12.183Z,75
2017-01-18T14:27:12.906Z,75
2017-01-18T14:28:14.100Z,70
2017-01-18T14:29:14.941Z,70
2017-01-18T14:30:15.702Z,70
2017-01-18T14:31:16.439Z,70
2017-01-18T14:32:17.174Z,65
2017-01-18T14:33:17.915Z,65
2017-01-18T14:34:18.683Z,65
2017-01-18T14:35:19.418Z,60